Time;durP1;ratioP1;P1;durP2;ratioP2;P2;SDS_P1;SDS_P2;PMS_P1;PMS_P2;Temp;Humidity;BMP_temperature;BMP_pressure;BME280_temperature;BME280_humidity;BME280_pressure;Samples;Min_cycle;Max_cycle;Signal;HPM_P1;HPM_P2
2021/03/03 00:00:21;;;;;;;31.80;13.23;;;;;;;4.59;99.31;102492.72;5010123;28;20080;-75
2021/03/03 00:02:46;;;;;;;29.52;13.98;;;;;;;4.39;100.00;102487.44;5005534;28;20135;-73
2021/03/03 00:05:12;;;;;;;26.73;13.05;;;;;;;4.31;100.00;102483.44;5008972;28;20103;-74
2021/03/03 00:07:37;;;;;;;29.95;13.25;;;;;;;4.32;100.00;102481.56;5007018;28;20052;-74
2021/03/03 00:10:04;;;;;;;31.38;14.50;;;;;;;4.34;100.00;102477.56;5005200;28;20569;-74
2021/03/03 00:12:30;;;;;;;27.52;12.98;;;;;;;4.29;100.00;102469.56;5004479;28;20046;-74
2021/03/03 00:14:55;;;;;;;30.63;12.80;;;;;;;4.20;100.00;102468.50;5007857;28;20164;-74
2021/03/03 00:17:20;;;;;;;28.10;13.55;;;;;;;4.31;100.00;102466.63;5006565;28;20486;-74
2021/03/03 00:19:46;;;;;;;30.70;13.98;;;;;;;4.33;100.00;102467.16;5006117;28;20549;-72
2021/03/03 00:22:11;;;;;;;28.02;13.73;;;;;;;4.40;100.00;102473.81;5009725;28;20032;-74
2021/03/03 00:24:37;;;;;;;30.60;14.85;;;;;;;4.43;100.00;102467.94;5009226;28;20041;-74
2021/03/03 00:27:02;;;;;;;37.50;15.18;;;;;;;4.55;100.00;102475.66;5007665;28;20032;-75
2021/03/03 00:29:27;;;;;;;30.80;14.35;;;;;;;4.50;100.00;102467.69;5003893;28;20034;-75
2021/03/03 00:31:53;;;;;;;32.30;14.27;;;;;;;4.52;100.00;102463.69;4991718;28;20033;-74
2021/03/03 00:34:18;;;;;;;31.92;14.88;;;;;;;4.48;100.00;102465.28;5007179;28;20039;-75
2021/03/03 00:36:43;;;;;;;34.72;14.80;;;;;;;4.44;100.00;102468.75;5006472;28;20065;-74
2021/03/03 00:39:09;;;;;;;30.63;14.48;;;;;;;4.30;100.00;102465.81;5011107;28;20100;-73
2021/03/03 00:41:34;;;;;;;31.42;14.25;;;;;;;4.34;100.00;102461.56;4996538;28;20493;-75
2021/03/03 00:43:59;;;;;;;33.90;14.15;;;;;;;4.28;100.00;102464.50;5006046;28;20044;-74
2021/03/03 00:46:25;;;;;;;31.90;14.35;;;;;;;4.11;100.00;102459.44;5010114;28;20045;-74
2021/03/03 00:48:52;;;;;;;29.73;13.25;;;;;;;4.05;100.00;102465.03;4983852;28;20032;-74
2021/03/03 00:51:18;;;;;;;29.52;14.05;;;;;;;4.09;100.00;102463.44;4993021;28;20034;-74
2021/03/03 00:53:45;;;;;;;30.33;13.77;;;;;;;4.00;100.00;102462.38;4983561;28;20398;-74
2021/03/03 00:56:10;;;;;;;33.17;15.18;;;;;;;4.14;100.00;102452.78;4990599;28;20544;-75
2021/03/03 00:58:36;;;;;;;30.58;14.00;;;;;;;4.37;100.00;102436.22;4988896;28;20026;-75
2021/03/03 01:01:01;;;;;;;30.08;14.25;;;;;;;4.43;100.00;102437.84;5007955;28;20037;-75
2021/03/03 01:03:30;;;;;;;33.30;15.25;;;;;;;4.35;100.00;102438.38;4991901;28;20030;-75
2021/03/03 01:06:05;;;;;;;30.65;15.27;;;;;;;4.41;100.00;102431.97;4974068;28;20038;-75
2021/03/03 01:08:31;;;;;;;31.85;14.75;;;;;;;4.36;100.00;102442.63;4991376;28;20034;-75
2021/03/03 01:10:56;;;;;;;35.47;15.18;;;;;;;4.21;100.00;102438.13;5004216;28;20037;-75
2021/03/03 01:13:26;;;;;;;31.15;14.98;;;;;;;4.23;100.00;102437.84;4987415;28;20030;-75
2021/03/03 01:15:53;;;;;;;34.38;15.50;;;;;;;4.24;100.00;102426.13;4991124;28;20033;-75
2021/03/03 01:18:24;;;;;;;37.92;16.10;;;;;;;4.20;100.00;102425.06;4976717;28;20029;-74
2021/03/03 01:20:49;;;;;;;34.38;14.93;;;;;;;4.11;100.00;102422.13;5008869;28;20045;-75
2021/03/03 01:23:15;;;;;;;33.78;14.77;;;;;;;4.19;100.00;102412.78;5006906;28;20029;-75
2021/03/03 01:25:40;;;;;;;31.70;13.93;;;;;;;4.03;100.00;102427.19;4998787;28;20038;-75
2021/03/03 01:28:06;;;;;;;34.00;15.27;;;;;;;3.94;100.00;102412.78;5009674;28;20117;-75
2021/03/03 01:30:31;;;;;;;31.60;15.60;;;;;;;4.04;100.00;102410.13;4991740;28;20025;-76
2021/03/03 01:32:56;;;;;;;31.95;15.00;;;;;;;4.00;100.00;102409.06;5002859;28;20045;-72
2021/03/03 01:35:22;;;;;;;38.95;16.33;;;;;;;3.90;100.00;102409.06;5007482;28;20026;-75
2021/03/03 01:37:47;;;;;;;34.83;15.73;;;;;;;3.77;100.00;102420.25;5009817;28;20029;-76
2021/03/03 01:40:13;;;;;;;33.85;15.45;;;;;;;3.81;100.00;102400.00;5005768;28;20076;-75
2021/03/03 01:42:38;;;;;;;34.30;15.20;;;;;;;3.90;100.00;102403.72;5011321;28;20070;-75
2021/03/03 01:45:05;;;;;;;33.60;14.98;;;;;;;3.83;100.00;102398.69;5012331;28;20037;-75
2021/03/03 01:47:30;;;;;;;35.17;15.48;;;;;;;3.74;100.00;102399.47;4993491;28;20033;-75
2021/03/03 01:49:56;;;;;;;31.45;14.30;;;;;;;3.58;100.00;102399.44;5002055;28;20050;-75
2021/03/03 01:52:23;;;;;;;32.80;14.68;;;;;;;3.52;100.00;102387.19;5006445;28;20034;-75
2021/03/03 01:54:48;;;;;;;34.97;14.82;;;;;;;3.36;100.00;102384.78;5013181;28;20026;-75
2021/03/03 01:57:14;;;;;;;33.03;14.68;;;;;;;3.34;100.00;102389.56;5012502;28;20033;-75
2021/03/03 01:59:39;;;;;;;30.98;14.40;;;;;;;3.40;100.00;102377.88;5008239;28;20142;-75
2021/03/03 02:02:05;;;;;;;35.28;15.13;;;;;;;3.45;100.00;102376.00;5011225;28;20048;-75
2021/03/03 02:04:32;;;;;;;37.95;15.82;;;;;;;3.38;100.00;102370.16;5013005;28;20081;-76
2021/03/03 02:07:06;;;;;;;36.60;15.20;;;;;;;3.64;100.00;102366.44;5001572;28;20149;-75
2021/03/03 02:09:43;;;;;;;32.38;15.13;;;;;;;3.60;100.00;102365.38;5009940;28;20030;-75
2021/03/03 02:12:34;;;;;;;38.95;15.43;;;;;;;3.61;100.00;102364.31;5010449;28;20040;-76
2021/03/03 02:15:01;;;;;;;34.97;15.10;;;;;;;3.53;100.00;102356.03;5022274;28;20022;-76
2021/03/03 02:17:29;;;;;;;33.90;15.30;;;;;;;3.54;100.00;102352.31;5015596;28;20038;-75
2021/03/03 02:20:00;;;;;;;33.53;14.90;;;;;;;3.59;100.00;102345.13;4995419;28;20049;-75
2021/03/03 02:23:04;;;;;;;34.42;15.60;;;;;;;3.47;100.00;102341.13;5012857;28;20036;-75
2021/03/03 02:25:35;;;;;;;40.30;14.80;;;;;;;3.48;100.00;102330.19;5012763;28;20038;-75
2021/03/03 02:28:05;;;;;;;34.65;14.52;;;;;;;3.53;100.00;102332.06;5007806;28;20133;-73
2021/03/03 02:30:35;;;;;;;35.80;15.52;;;;;;;3.68;100.00;102324.88;5004656;28;20117;-75
2021/03/03 02:33:01;;;;;;;30.85;15.30;;;;;;;3.72;100.00;102343.00;5009426;28;20041;-75
2021/03/03 02:35:27;;;;;;;36.88;15.10;;;;;;;3.54;100.00;102339.78;5006551;28;20029;-75
2021/03/03 02:37:54;;;;;;;34.53;14.75;;;;;;;3.44;100.00;102336.34;5009523;28;20491;-75
2021/03/03 02:40:20;;;;;;;28.40;13.98;;;;;;;3.15;100.00;102337.88;5010589;28;20211;-76
2021/03/03 02:42:46;;;;;;;33.03;15.02;;;;;;;3.01;100.00;102342.91;5009748;28;20407;-75
2021/03/03 02:45:16;;;;;;;37.92;16.27;;;;;;;3.06;100.00;102326.16;5006245;28;20483;-76
2021/03/03 02:47:42;;;;;;;37.65;15.55;;;;;;;3.03;100.00;102318.69;5008849;28;20044;-76
2021/03/03 02:50:09;;;;;;;35.22;15.10;;;;;;;3.07;100.00;102315.25;5012174;28;20040;-75
2021/03/03 02:52:54;;;;;;;31.65;14.82;;;;;;;3.28;100.00;102305.44;4981497;28;20038;-75
2021/03/03 02:55:23;;;;;;;36.03;15.77;;;;;;;3.19;100.00;102315.81;4997597;28;20068;-76
2021/03/03 02:57:49;;;;;;;31.30;13.43;;;;;;;2.90;100.00;102303.25;5008008;28;20394;-75
2021/03/03 03:00:18;;;;;;;32.35;14.27;;;;;;;3.13;100.00;102308.09;5009136;28;21066;-74
2021/03/03 03:02:47;;;;;;;33.03;14.35;;;;;;;3.22;100.00;102295.84;5002631;28;20033;-75
2021/03/03 03:05:14;;;;;;;33.58;14.10;;;;;;;3.27;100.00;102296.63;5011310;28;20038;-75
2021/03/03 03:07:51;;;;;;;29.60;13.35;;;;;;;3.16;100.00;102291.56;5012568;28;20042;-75
2021/03/03 03:10:19;;;;;;;31.17;13.75;;;;;;;3.04;100.00;102288.38;5009474;28;20120;-75
2021/03/03 03:12:48;;;;;;;29.42;13.07;;;;;;;3.14;100.00;102285.72;4998791;28;20030;-76
2021/03/03 03:15:17;;;;;;;30.90;13.52;;;;;;;3.02;100.00;102279.88;5008166;28;20046;-74
2021/03/03 03:17:46;;;;;;;30.05;13.80;;;;;;;2.94;100.00;102286.50;5002588;28;20458;-76
2021/03/03 03:20:15;;;;;;;27.98;13.60;;;;;;;2.81;100.00;102286.22;4997822;28;20438;-75
2021/03/03 03:22:40;;;;;;;28.80;13.35;;;;;;;2.75;100.00;102294.16;5012467;28;20025;-75
2021/03/03 03:25:07;;;;;;;29.23;12.95;;;;;;;2.81;100.00;102279.00;5019284;28;20033;-75
2021/03/03 03:27:33;;;;;;;28.13;12.95;;;;;;;2.64;100.00;102281.91;5012647;28;20044;-75
2021/03/03 03:29:59;;;;;;;31.80;13.85;;;;;;;2.83;100.00;102286.75;5012443;28;20029;-75
2021/03/03 03:32:26;;;;;;;31.42;13.40;;;;;;;2.55;100.00;102287.97;5011508;28;20105;-75
2021/03/03 03:34:51;;;;;;;32.90;14.10;;;;;;;2.51;100.00;102284.25;5015109;28;20032;-75
2021/03/03 03:37:18;;;;;;;33.35;13.63;;;;;;;2.51;100.00;102276.28;5010420;28;20037;-76
2021/03/03 03:39:43;;;;;;;33.15;13.15;;;;;;;2.48;100.00;102276.78;5014551;28;20022;-75
2021/03/03 03:42:10;;;;;;;33.88;14.05;;;;;;;2.44;100.00;102268.53;5001446;28;20486;-75
2021/03/03 03:44:38;;;;;;;31.60;14.90;;;;;;;2.52;100.00;102275.19;5011585;28;20038;-76
2021/03/03 03:47:03;;;;;;;29.70;13.70;;;;;;;2.54;100.00;102268.56;5004741;28;20038;-74
2021/03/03 03:49:30;;;;;;;31.80;13.50;;;;;;;2.41;100.00;102269.06;4994121;28;20088;-74
2021/03/03 03:51:56;;;;;;;31.48;13.40;;;;;;;2.36;100.00;102265.59;5003525;28;20049;-75
2021/03/03 03:54:21;;;;;;;28.92;13.32;;;;;;;2.35;100.00;102271.94;5011957;28;20065;-75
2021/03/03 03:56:47;;;;;;;29.58;13.77;;;;;;;2.49;100.00;102271.22;5001744;28;20037;-75
2021/03/03 03:59:12;;;;;;;31.75;14.52;;;;;;;2.59;100.00;102265.13;4991885;28;20034;-76
2021/03/03 04:01:37;;;;;;;29.80;13.23;;;;;;;2.38;100.00;102266.91;4992429;28;20030;-75
2021/03/03 04:04:03;;;;;;;30.77;13.73;;;;;;;2.38;100.00;102277.53;4992070;28;20034;-75
2021/03/03 04:06:28;;;;;;;29.48;13.32;;;;;;;2.22;100.00;102280.41;4993694;28;20552;-76
2021/03/03 04:08:53;;;;;;;30.65;14.13;;;;;;;2.25;100.00;102278.00;5011414;28;20573;-76
2021/03/03 04:11:19;;;;;;;28.75;12.85;;;;;;;2.23;100.00;102274.00;5004702;28;20137;-75
2021/03/03 04:13:44;;;;;;;31.40;13.10;;;;;;;2.21;100.00;102268.16;5008815;28;20045;-75
2021/03/03 04:16:10;;;;;;;27.33;13.50;;;;;;;2.04;100.00;102273.66;4995939;28;20169;-75
2021/03/03 04:18:35;;;;;;;29.25;14.20;;;;;;;2.08;100.00;102268.63;5008922;28;20034;-75
2021/03/03 04:21:00;;;;;;;28.90;13.27;;;;;;;2.19;100.00;102275.59;5007182;28;20034;-75
2021/03/03 04:23:26;;;;;;;26.80;12.80;;;;;;;2.27;100.00;102277.75;5015281;28;20474;-75
2021/03/03 04:25:51;;;;;;;27.40;12.82;;;;;;;2.42;100.00;102275.19;5020167;28;20385;-75
2021/03/03 04:28:17;;;;;;;26.77;13.02;;;;;;;2.07;100.00;102272.34;5007693;28;20108;-75
2021/03/03 04:30:42;;;;;;;27.02;12.40;;;;;;;2.11;100.00;102268.13;5010384;28;20056;-74
2021/03/03 04:33:08;;;;;;;26.60;13.00;;;;;;;2.19;100.00;102275.59;5010020;28;20033;-75
2021/03/03 04:35:33;;;;;;;28.27;12.82;;;;;;;2.10;100.00;102275.28;5002700;28;20136;-75
2021/03/03 04:37:59;;;;;;;28.70;13.07;;;;;;;2.33;100.00;102276.72;5007950;28;20483;-75
2021/03/03 04:40:24;;;;;;;28.90;12.60;;;;;;;2.08;100.00;102273.94;5009465;28;20112;-75
2021/03/03 04:42:49;;;;;;;25.17;12.48;;;;;;;1.96;100.00;102276.78;5009763;28;20036;-75
2021/03/03 04:45:15;;;;;;;26.60;12.85;;;;;;;1.98;100.00;102272.03;5008264;28;20037;-75
2021/03/03 04:47:40;;;;;;;26.25;12.43;;;;;;;2.06;100.00;102271.53;5003565;28;20038;-75
2021/03/03 04:50:08;;;;;;;26.35;11.88;;;;;;;1.98;100.00;102277.34;5014539;28;20546;-75
2021/03/03 04:52:33;;;;;;;24.63;12.30;;;;;;;1.94;100.00;102281.56;5010144;28;20099;-74
2021/03/03 04:54:59;;;;;;;26.20;12.18;;;;;;;2.08;100.00;102277.41;4997666;28;20037;-75
2021/03/03 04:57:24;;;;;;;25.90;11.80;;;;;;;2.05;100.00;102269.16;5008217;28;20285;-75
2021/03/03 04:59:50;;;;;;;26.80;12.75;;;;;;;2.08;100.00;102268.63;5011207;28;20034;-75
2021/03/03 05:02:15;;;;;;;28.17;12.45;;;;;;;1.87;100.00;102261.59;5017928;28;20025;-72
2021/03/03 05:04:41;;;;;;;27.20;12.05;;;;;;;1.93;100.00;102260.56;5008925;28;20116;-75
2021/03/03 05:07:06;;;;;;;26.33;12.38;;;;;;;1.88;100.00;102268.53;5013474;28;20030;-74
2021/03/03 05:09:31;;;;;;;27.35;13.10;;;;;;;1.78;100.00;102264.72;5018079;28;20025;-75
2021/03/03 05:11:57;;;;;;;24.52;11.90;;;;;;;1.42;100.00;102260.25;4985254;28;20120;-74
2021/03/03 05:14:22;;;;;;;28.08;13.23;;;;;;;1.49;100.00;102260.03;5010504;28;20100;-75
2021/03/03 05:16:48;;;;;;;28.77;13.38;;;;;;;1.68;100.00;102259.34;5013574;28;20030;-74
2021/03/03 05:19:13;;;;;;;26.85;12.75;;;;;;;1.65;100.00;102257.22;5014439;28;20076;-74
2021/03/03 05:21:39;;;;;;;31.25;13.45;;;;;;;1.71;100.00;102255.41;5012790;28;20075;-75
2021/03/03 05:24:04;;;;;;;27.52;13.40;;;;;;;1.66;100.00;102258.03;5025609;28;20030;-75
2021/03/03 05:26:30;;;;;;;26.05;12.95;;;;;;;1.75;100.00;102248.53;5003938;28;20777;-75
2021/03/03 05:28:55;;;;;;;29.85;12.73;;;;;;;1.84;100.00;102246.97;5025012;28;20533;-75
2021/03/03 05:31:21;;;;;;;26.67;12.82;;;;;;;1.96;100.00;102246.78;5008410;28;20044;-75
2021/03/03 05:33:46;;;;;;;26.05;12.10;;;;;;;1.50;100.00;102246.50;5019232;28;20481;-74
2021/03/03 05:36:14;;;;;;;27.60;13.68;;;;;;;1.59;100.00;102246.81;5000388;28;20429;-73
2021/03/03 05:38:40;;;;;;;29.40;14.27;;;;;;;1.79;100.00;102239.78;5009889;28;20470;-75
2021/03/03 05:41:07;;;;;;;27.85;13.35;;;;;;;1.71;100.00;102234.97;5021039;28;20040;-75
2021/03/03 05:43:34;;;;;;;27.90;12.95;;;;;;;1.64;100.00;102241.56;5029394;28;20043;-75
2021/03/03 05:46:01;;;;;;;29.83;13.27;;;;;;;1.55;100.00;102249.19;5011001;28;20537;-74
2021/03/03 05:48:41;;;;;;;33.90;14.23;;;;;;;1.68;100.00;102248.72;5021854;28;20053;-75
2021/03/03 05:51:07;;;;;;;29.75;13.68;;;;;;;1.74;100.00;102246.94;5024262;28;20033;-75
2021/03/03 05:53:34;;;;;;;28.73;13.65;;;;;;;1.60;100.00;102243.94;5009248;28;20095;-75
2021/03/03 05:56:05;;;;;;;31.00;13.23;;;;;;;1.42;100.00;102228.41;5021899;28;21049;-74
2021/03/03 05:58:37;;;;;;;30.83;13.93;;;;;;;1.43;100.00;102224.66;5017407;28;20037;-75
2021/03/03 06:01:04;;;;;;;28.60;13.32;;;;;;;1.71;100.00;102237.63;5022695;28;20113;-74
2021/03/03 06:03:30;;;;;;;28.48;13.55;;;;;;;1.71;100.00;102231.50;5025812;28;20060;-75
2021/03/03 06:05:56;;;;;;;31.15;13.30;;;;;;;1.59;100.00;102238.84;5004302;28;20568;-75
2021/03/03 06:08:27;;;;;;;32.28;13.75;;;;;;;1.49;100.00;102239.56;5013021;28;20081;-75
2021/03/03 06:10:53;;;;;;;34.45;14.73;;;;;;;1.51;100.00;102234.03;5008156;28;20490;-74
2021/03/03 06:13:21;;;;;;;34.95;14.75;;;;;;;1.55;100.00;102229.78;5005480;28;20057;-75
2021/03/03 06:15:48;;;;;;;29.77;14.25;;;;;;;1.62;100.00;102233.84;5024123;28;20525;-75
2021/03/03 06:18:16;;;;;;;28.70;13.05;;;;;;;1.75;100.00;102237.91;5022895;28;20061;-75
2021/03/03 06:20:50;;;;;;;31.75;14.02;;;;;;;1.84;100.00;102223.88;5025084;28;20033;-75
2021/03/03 06:23:17;;;;;;;31.23;13.70;;;;;;;1.80;100.00;102220.13;5024688;28;20029;-74
2021/03/03 06:25:43;;;;;;;28.38;12.60;;;;;;;1.93;100.00;102226.06;5017265;28;20550;-75
2021/03/03 06:28:10;;;;;;;35.53;14.23;;;;;;;2.02;100.00;102216.53;5017341;28;20048;-73
2021/03/03 06:30:35;;;;;;;32.17;13.98;;;;;;;1.79;100.00;102215.91;5020564;28;20087;-73
2021/03/03 06:33:01;;;;;;;33.72;14.70;;;;;;;1.82;100.00;102218.03;5008096;28;20037;-74
2021/03/03 06:35:44;;;;;;;30.48;14.00;;;;;;;1.71;100.00;102211.06;5028650;28;20025;-75
2021/03/03 06:38:12;;;;;;;38.38;15.18;;;;;;;2.06;100.00;102214.97;5011315;28;20064;-73
2021/03/03 06:40:50;;;;;;;38.42;14.88;;;;;;;1.77;100.00;102215.34;5010971;28;20033;-72
2021/03/03 06:43:24;;;;;;;38.08;14.93;;;;;;;1.84;100.00;102213.25;5005645;28;20394;-75
2021/03/03 06:45:50;;;;;;;39.38;16.05;;;;;;;1.83;100.00;102203.72;5001449;28;20034;-74
2021/03/03 06:48:35;;;;;;;42.00;15.25;;;;;;;1.83;100.00;102213.53;4998146;28;20030;-75
2021/03/03 06:51:00;;;;;;;42.85;15.93;;;;;;;1.75;100.00;102208.69;5008726;28;20033;-74
2021/03/03 06:53:32;;;;;;;43.55;16.88;;;;;;;2.12;100.00;102219.25;5008846;28;20036;-75
2021/03/03 06:55:57;;;;;;;;;;;;;;;2.10;100.00;102202.75;5007251;28;20065;-75
2021/03/03 06:58:28;;;;;;;43.17;16.63;;;;;;;2.11;100.00;102196.41;5007735;28;20405;-75
2021/03/03 07:00:57;;;;;;;52.92;17.50;;;;;;;2.18;100.00;102202.25;5010597;28;20042;-74
2021/03/03 07:03:33;;;;;;;51.15;18.48;;;;;;;2.25;100.00;102200.16;5008640;28;20676;-74
2021/03/03 07:05:58;;;;;;;52.10;19.83;;;;;;;2.66;100.00;102204.53;5006037;28;20161;-74
2021/03/03 07:08:24;;;;;;;47.53;18.95;;;;;;;2.64;100.00;102203.97;5009638;28;20109;-74
2021/03/03 07:10:49;;;;;;;54.60;19.25;;;;;;;2.85;100.00;102208.28;5020251;28;20029;-74
2021/03/03 07:13:15;;;;;;;51.72;19.63;;;;;;;2.77;100.00;102189.41;5028827;28;20500;-74
2021/03/03 07:15:41;;;;;;;51.33;19.58;;;;;;;2.57;100.00;102188.31;5020075;28;20034;-74
2021/03/03 07:18:32;;;;;;;53.40;19.77;;;;;;;2.65;100.00;102194.97;5015294;28;20428;-74
2021/03/03 07:20:58;;;;;;;49.17;18.98;;;;;;;2.39;100.00;102191.44;5012246;28;20395;-74
2021/03/03 07:23:40;;;;;;;51.38;19.38;;;;;;;2.74;100.00;102188.88;5002731;28;20034;-73
2021/03/03 07:26:06;;;;;;;51.22;19.02;;;;;;;3.04;100.00;102185.41;5015998;28;20068;-73
2021/03/03 07:28:32;;;;;;;51.28;19.50;;;;;;;3.07;100.00;102194.72;5022299;28;20140;-73
2021/03/03 07:30:58;;;;;;;50.92;18.92;;;;;;;3.21;100.00;102191.28;5022988;28;20120;-74
2021/03/03 07:33:24;;;;;;;48.03;19.10;;;;;;;3.47;100.00;102192.03;5007456;28;20044;-74
2021/03/03 07:35:50;;;;;;;45.28;18.20;;;;;;;3.71;100.00;102197.56;5003668;28;20057;-74
2021/03/03 07:38:17;;;;;;;47.97;17.35;;;;;;;3.62;100.00;102190.13;5010374;28;20545;-74
2021/03/03 07:40:42;;;;;;;45.00;17.05;;;;;;;3.58;100.00;102193.63;5009798;28;20033;-74
2021/03/03 07:43:08;;;;;;;43.10;17.13;;;;;;;3.54;100.00;102195.22;4999740;28;20034;-74
2021/03/03 07:45:39;;;;;;;40.47;17.73;;;;;;;3.57;100.00;102192.81;5008390;28;20092;-75
2021/03/03 07:48:06;;;;;;;42.15;17.08;;;;;;;3.61;100.00;102188.56;5003462;28;20129;-74
2021/03/03 07:50:32;;;;;;;39.17;17.15;;;;;;;3.48;100.00;102191.75;4972910;28;20038;-74
2021/03/03 07:52:57;;;;;;;39.30;17.02;;;;;;;3.93;100.00;102184.72;5008344;28;20029;-74
2021/03/03 07:55:24;;;;;;;37.15;16.83;;;;;;;4.33;100.00;102173.88;5015786;28;20113;-74
2021/03/03 07:57:52;;;;;;;40.00;15.30;;;;;;;4.28;100.00;102172.03;5001940;28;20577;-74
2021/03/03 08:00:26;;;;;;;35.05;15.40;;;;;;;4.92;100.00;102179.06;5016240;28;20445;-73
2021/03/03 08:02:54;;;;;;;34.30;15.77;;;;;;;5.14;100.00;102184.78;5017825;28;20402;-74
2021/03/03 08:05:40;;;;;;;36.40;15.98;;;;;;;5.62;100.00;102170.41;5024100;28;20034;-74
2021/03/03 08:08:16;;;;;;;36.67;15.68;;;;;;;5.07;100.00;102177.09;5016232;28;20133;-74
2021/03/03 08:10:42;;;;;;;37.20;14.85;;;;;;;5.25;100.00;102172.94;5015333;28;20037;-73
2021/03/03 08:13:35;;;;;;;31.30;14.45;;;;;;;5.47;100.00;102171.38;5015064;28;20061;-74
2021/03/03 08:16:03;;;;;;;30.38;14.50;;;;;;;5.04;100.00;102169.66;5019744;28;20038;-75
2021/03/03 08:18:32;;;;;;;31.70;14.75;;;;;;;4.97;100.00;102169.19;5022728;28;20041;-73
2021/03/03 08:21:20;;;;;;;31.77;14.20;;;;;;;5.00;100.00;102162.47;5010818;28;20038;-74
2021/03/03 08:23:53;;;;;;;30.25;14.27;;;;;;;5.36;100.00;102171.78;5006198;28;20041;-74
2021/03/03 08:26:18;;;;;;;32.05;13.80;;;;;;;5.21;100.00;102163.88;5019983;28;20034;-74
2021/03/03 08:28:44;;;;;;;33.25;14.68;;;;;;;5.71;100.00;102168.72;5018441;28;20490;-74
2021/03/03 08:31:17;;;;;;;29.00;13.88;;;;;;;5.85;99.56;102158.97;5017894;28;20044;-74
2021/03/03 08:33:49;;;;;;;31.85;15.07;;;;;;;6.24;99.35;102161.41;5015960;28;20038;-74
2021/03/03 08:36:21;;;;;;;33.78;15.27;;;;;;;6.45;97.91;102161.91;5007902;28;20083;-74
2021/03/03 08:38:52;;;;;;;30.83;14.68;;;;;;;6.49;97.69;102154.91;4989051;28;20128;-74
2021/03/03 08:41:17;;;;;;;26.90;13.85;;;;;;;6.64;95.71;102155.47;5014653;28;20037;-74
2021/03/03 08:43:45;;;;;;;29.80;14.60;;;;;;;6.43;96.60;102158.75;5009142;28;20033;-74
2021/03/03 08:46:19;;;;;;;31.30;15.32;;;;;;;6.76;95.82;102161.19;5007413;28;20038;-74
2021/03/03 08:48:57;;;;;;;30.70;14.55;;;;;;;7.39;95.01;102149.94;5003715;28;20037;-73
2021/03/03 08:51:30;;;;;;;33.42;15.10;;;;;;;7.47;92.41;102136.66;5004248;28;20037;-74
2021/03/03 08:54:01;;;;;;;30.52;13.70;;;;;;;7.38;92.04;102130.38;5018389;28;20034;-74
2021/03/03 08:56:32;;;;;;;29.80;13.98;;;;;;;7.65;93.14;102132.28;5017256;28;20048;-74
2021/03/03 08:58:59;;;;;;;29.08;14.32;;;;;;;8.03;91.40;102137.13;5010211;28;20060;-74
2021/03/03 09:01:55;;;;;;;30.17;14.93;;;;;;;8.31;88.97;102129.84;5006664;28;20048;-74
2021/03/03 09:04:28;;;;;;;29.05;14.80;;;;;;;8.04;88.80;102125.31;5005105;28;20053;-74
2021/03/03 09:06:56;;;;;;;29.83;14.27;;;;;;;8.24;89.64;102116.03;5013264;28;20565;-73
2021/03/03 09:09:23;;;;;;;27.92;14.00;;;;;;;9.64;86.14;102129.72;5006926;28;20030;-74
2021/03/03 09:12:01;;;;;;;29.42;14.82;;;;;;;10.09;82.65;102128.38;5005664;28;20132;-74
2021/03/03 09:14:27;;;;;;;28.02;14.27;;;;;;;9.50;83.01;102120.97;5004859;28;20417;-74
2021/03/03 09:17:00;;;;;;;32.17;14.80;;;;;;;9.45;82.04;102116.50;5006529;28;20041;-74
2021/03/03 09:19:27;;;;;;;27.98;14.07;;;;;;;9.65;81.56;102110.56;4998709;28;20421;-74
2021/03/03 09:21:53;;;;;;;29.88;14.68;;;;;;;10.30;78.96;102110.53;5004534;28;20111;-73
2021/03/03 09:24:19;;;;;;;28.13;13.63;;;;;;;9.76;80.41;102106.47;5008447;28;20344;-75
2021/03/03 09:26:44;;;;;;;28.73;14.35;;;;;;;10.01;81.84;102110.31;5014496;28;20033;-74
2021/03/03 09:29:27;;;;;;;29.17;14.50;;;;;;;10.48;80.02;102105.94;5011046;28;20074;-74
2021/03/03 09:31:53;;;;;;;24.83;13.18;;;;;;;10.71;77.68;102091.97;5014719;28;20124;-74
2021/03/03 09:34:18;;;;;;;27.80;14.75;;;;;;;10.84;75.03;102096.38;4985104;28;20120;-74
2021/03/03 09:36:58;;;;;;;25.77;13.40;;;;;;;11.64;73.94;102089.25;5010014;28;20054;-74
2021/03/03 09:39:24;;;;;;;28.13;13.95;;;;;;;11.32;72.62;102087.19;5009828;28;20041;-74
2021/03/03 09:41:54;;;;;;;25.90;13.27;;;;;;;11.23;74.92;102089.13;5005621;28;20091;-74
2021/03/03 09:44:20;;;;;;;25.60;13.07;;;;;;;11.75;72.56;102075.09;5008988;28;20034;-74
2021/03/03 09:46:55;;;;;;;26.10;13.20;;;;;;;11.64;71.90;102073.88;5007897;28;20049;-74
2021/03/03 09:49:29;;;;;;;29.95;14.20;;;;;;;11.59;71.43;102075.97;4980322;28;20045;-74
2021/03/03 09:51:56;;;;;;;29.30;14.07;;;;;;;11.46;72.97;102066.16;4992461;28;20048;-74
2021/03/03 09:54:30;;;;;;;25.98;12.80;;;;;;;12.58;69.96;102064.28;5013418;28;20049;-74
2021/03/03 09:57:01;;;;;;;25.95;13.73;;;;;;;13.31;65.20;102063.31;4991857;28;20058;-74
2021/03/03 09:59:27;;;;;;;24.38;12.52;;;;;;;12.98;66.21;102064.47;4995296;28;20037;-74
2021/03/03 10:01:52;;;;;;;26.20;13.32;;;;;;;13.62;65.41;102059.22;5005631;28;20045;-74
2021/03/03 10:04:18;;;;;;;25.95;13.48;;;;;;;14.13;63.91;102058.44;5013531;28;20026;-74
2021/03/03 10:06:43;;;;;;;24.13;13.02;;;;;;;14.29;62.04;102067.41;5009303;28;20475;-75
2021/03/03 10:09:09;;;;;;;26.33;13.43;;;;;;;14.45;61.30;102062.84;5017635;28;20021;-74
2021/03/03 10:11:35;;;;;;;24.05;13.63;;;;;;;14.55;59.21;102064.28;4991397;28;20121;-74
2021/03/03 10:14:08;;;;;;;24.08;12.98;;;;;;;14.53;59.39;102066.53;5007526;28;20034;-75
2021/03/03 10:16:34;;;;;;;27.83;12.93;;;;;;;14.38;59.50;102058.00;5003930;28;20041;-75
2021/03/03 10:19:08;;;;;;;24.50;13.18;;;;;;;14.56;58.85;102068.53;5012118;28;20458;-75
2021/03/03 10:21:44;;;;;;;23.52;12.45;;;;;;;14.42;58.41;102058.91;5006611;28;20037;-75
2021/03/03 10:24:16;;;;;;;29.27;13.57;;;;;;;14.42;58.68;102061.59;5003022;28;20153;-74
2021/03/03 10:26:51;;;;;;;25.60;13.95;;;;;;;14.33;58.33;102058.28;5023120;28;20061;-75
2021/03/03 10:29:33;;;;;;;25.13;13.65;;;;;;;14.61;58.12;102060.19;5009485;28;20036;-73
2021/03/03 10:32:25;;;;;;;24.08;13.75;;;;;;;14.59;57.71;102057.03;5010341;28;20038;-74
2021/03/03 10:35:00;;;;;;;25.63;13.40;;;;;;;14.43;58.45;102067.81;4986331;28;20410;-74
2021/03/03 10:37:26;;;;;;;25.17;13.40;;;;;;;14.35;58.86;102061.44;4997343;28;20033;-75
2021/03/03 10:39:52;;;;;;;26.83;13.73;;;;;;;14.39;58.56;102064.22;5005009;28;20030;-75
2021/03/03 10:42:23;;;;;;;27.58;13.63;;;;;;;14.27;59.28;102062.34;5017045;28;20509;-75
2021/03/03 10:44:52;;;;;;;26.85;13.73;;;;;;;14.16;60.03;102060.44;5003013;28;20045;-74
2021/03/03 10:47:39;;;;;;;28.35;13.13;;;;;;;14.22;60.00;102057.16;5008829;28;20150;-74
2021/03/03 10:50:06;;;;;;;24.88;13.48;;;;;;;14.52;59.80;102051.41;4992881;28;20529;-74
2021/03/03 10:52:32;;;;;;;25.75;13.15;;;;;;;14.60;59.64;102053.97;5012469;28;20030;-75
2021/03/03 10:54:57;;;;;;;26.88;13.05;;;;;;;14.70;58.39;102039.09;5004019;28;20084;-75
2021/03/03 10:57:23;;;;;;;25.70;13.85;;;;;;;14.27;59.60;102047.97;5007000;28;20040;-74
2021/03/03 11:00:00;;;;;;;25.83;14.18;;;;;;;14.08;61.34;102045.13;5008665;28;20049;-74
2021/03/03 11:02:25;;;;;;;26.48;13.88;;;;;;;14.23;60.54;102041.66;5019696;28;20034;-75
2021/03/03 11:04:51;;;;;;;29.40;13.70;;;;;;;14.37;60.56;102034.75;5019708;28;20547;-74
2021/03/03 11:07:16;;;;;;;23.15;13.23;;;;;;;14.34;60.34;102024.59;5001832;28;20410;-75
2021/03/03 11:09:47;;;;;;;28.20;13.82;;;;;;;14.54;60.91;102024.75;5002736;28;20083;-74
2021/03/03 11:12:13;;;;;;;27.42;13.63;;;;;;;14.85;59.68;102016.63;5009445;28;20121;-75
2021/03/03 11:14:38;;;;;;;26.98;13.55;;;;;;;15.03;60.04;102012.44;5020288;28;20522;-74